sensor_id;sensor_type;location;lat;lon;timestamp;pressure;altitude;pressure_sealevel;temperature;humidity
49611;BME280;35515;48.766;9.176;2022-08-21T00:00:39;98445.13;;;19.69;54.71
49611;BME280;35515;48.766;9.176;2022-08-21T00:03:08;98446.22;;;19.68;54.73
49611;BME280;35515;48.766;9.176;2022-08-21T00:05:39;98451.69;;;19.63;54.89
49611;BME280;35515;48.766;9.176;2022-08-21T00:08:06;98448.56;;;19.44;55.75
49611;BME280;35515;48.766;9.176;2022-08-21T00:10:33;98446.06;;;19.42;55.83
49611;BME280;35515;48.766;9.176;2022-08-21T00:13:01;98445.38;;;19.62;55.24
49611;BME280;35515;48.766;9.176;2022-08-21T00:15:29;98444.50;;;19.51;55.95
49611;BME280;35515;48.766;9.176;2022-08-21T00:17:56;98436.03;;;19.63;55.56
49611;BME280;35515;48.766;9.176;2022-08-21T00:20:24;98435.28;;;19.30;56.97
49611;BME280;35515;48.766;9.176;2022-08-21T00:22:52;98438.69;;;19.48;56.50
49611;BME280;35515;48.766;9.176;2022-08-21T00:25:20;98430.69;;;19.41;56.82
49611;BME280;35515;48.766;9.176;2022-08-21T00:27:47;98428.97;;;19.35;56.71
49611;BME280;35515;48.766;9.176;2022-08-21T00:30:17;98428.31;;;19.17;57.50
49611;BME280;35515;48.766;9.176;2022-08-21T00:32:44;98432.13;;;19.16;57.39
49611;BME280;35515;48.766;9.176;2022-08-21T00:35:13;98431.00;;;19.12;57.87
49611;BME280;35515;48.766;9.176;2022-08-21T00:37:41;98437.72;;;19.27;57.14
49611;BME280;35515;48.766;9.176;2022-08-21T00:40:12;98432.59;;;19.03;57.90
49611;BME280;35515;48.766;9.176;2022-08-21T00:42:40;98437.63;;;19.16;57.09
49611;BME280;35515;48.766;9.176;2022-08-21T00:45:08;98442.25;;;19.11;57.29
49611;BME280;35515;48.766;9.176;2022-08-21T00:47:35;98441.75;;;18.86;58.70
49611;BME280;35515;48.766;9.176;2022-08-21T00:50:02;98439.16;;;18.97;57.71
49611;BME280;35515;48.766;9.176;2022-08-21T00:52:32;98434.78;;;19.01;57.58
49611;BME280;35515;48.766;9.176;2022-08-21T00:55:01;98433.22;;;19.10;57.00
49611;BME280;35515;48.766;9.176;2022-08-21T00:57:34;98430.28;;;19.22;56.53
49611;BME280;35515;48.766;9.176;2022-08-21T01:00:07;98433.53;;;19.19;56.51
49611;BME280;35515;48.766;9.176;2022-08-21T01:02:35;98432.91;;;19.07;57.22
49611;BME280;35515;48.766;9.176;2022-08-21T01:05:03;98431.78;;;19.02;57.10
49611;BME280;35515;48.766;9.176;2022-08-21T01:07:30;98436.22;;;18.81;58.13
49611;BME280;35515;48.766;9.176;2022-08-21T01:09:57;98431.47;;;18.99;57.49
49611;BME280;35515;48.766;9.176;2022-08-21T01:12:24;98430.84;;;18.92;57.29
49611;BME280;35515;48.766;9.176;2022-08-21T01:14:53;98434.69;;;18.91;57.36
49611;BME280;35515;48.766;9.176;2022-08-21T01:17:20;98437.25;;;18.75;58.27
49611;BME280;35515;48.766;9.176;2022-08-21T01:19:47;98438.91;;;18.76;57.97
49611;BME280;35515;48.766;9.176;2022-08-21T01:22:15;98432.81;;;18.69;58.03
49611;BME280;35515;48.766;9.176;2022-08-21T01:24:41;98432.88;;;18.74;57.83
49611;BME280;35515;48.766;9.176;2022-08-21T01:27:08;98435.50;;;18.64;58.20
49611;BME280;35515;48.766;9.176;2022-08-21T01:29:39;98430.56;;;18.66;58.00
49611;BME280;35515;48.766;9.176;2022-08-21T01:32:12;98437.69;;;18.62;58.25
49611;BME280;35515;48.766;9.176;2022-08-21T01:34:43;98433.03;;;18.62;58.17
49611;BME280;35515;48.766;9.176;2022-08-21T01:37:09;98431.44;;;18.66;58.02
49611;BME280;35515;48.766;9.176;2022-08-21T01:39:38;98424.81;;;18.62;57.82
49611;BME280;35515;48.766;9.176;2022-08-21T01:42:05;98425.63;;;18.63;58.17
49611;BME280;35515;48.766;9.176;2022-08-21T01:44:32;98428.31;;;18.58;58.35
49611;BME280;35515;48.766;9.176;2022-08-21T01:47:01;98420.81;;;18.48;58.98
49611;BME280;35515;48.766;9.176;2022-08-21T01:49:27;98427.59;;;18.40;59.34
49611;BME280;35515;48.766;9.176;2022-08-21T01:51:54;98417.19;;;18.42;59.44
49611;BME280;35515;48.766;9.176;2022-08-21T01:54:21;98420.50;;;18.44;59.33
49611;BME280;35515;48.766;9.176;2022-08-21T01:56:52;98411.25;;;18.50;58.89
49611;BME280;35515;48.766;9.176;2022-08-21T01:59:19;98416.63;;;18.40;58.84
49611;BME280;35515;48.766;9.176;2022-08-21T02:01:46;98414.13;;;18.38;59.05
49611;BME280;35515;48.766;9.176;2022-08-21T02:04:13;98410.88;;;18.42;58.92
49611;BME280;35515;48.766;9.176;2022-08-21T02:06:39;98405.91;;;18.38;59.08
49611;BME280;35515;48.766;9.176;2022-08-21T02:09:08;98404.88;;;18.45;58.87
49611;BME280;35515;48.766;9.176;2022-08-21T02:11:35;98404.56;;;18.41;58.63
49611;BME280;35515;48.766;9.176;2022-08-21T02:14:06;98401.44;;;18.32;59.06
49611;BME280;35515;48.766;9.176;2022-08-21T02:16:33;98408.06;;;18.36;58.66
49611;BME280;35515;48.766;9.176;2022-08-21T02:19:00;98398.81;;;18.15;59.62
49611;BME280;35515;48.766;9.176;2022-08-21T02:21:27;98406.19;;;18.15;60.01
49611;BME280;35515;48.766;9.176;2022-08-21T02:23:53;98400.84;;;18.03;60.26
49611;BME280;35515;48.766;9.176;2022-08-21T02:26:20;98402.06;;;18.12;60.09
49611;BME280;35515;48.766;9.176;2022-08-21T02:28:47;98405.47;;;18.25;59.61
49611;BME280;35515;48.766;9.176;2022-08-21T02:31:15;98395.56;;;18.18;59.98
49611;BME280;35515;48.766;9.176;2022-08-21T02:33:41;98403.97;;;18.12;60.09
49611;BME280;35515;48.766;9.176;2022-08-21T02:36:09;98402.25;;;18.05;60.28
49611;BME280;35515;48.766;9.176;2022-08-21T02:38:38;98403.41;;;18.10;60.16
49611;BME280;35515;48.766;9.176;2022-08-21T02:41:06;98399.31;;;17.90;60.94
49611;BME280;35515;48.766;9.176;2022-08-21T02:43:33;98396.50;;;17.85;61.27
49611;BME280;35515;48.766;9.176;2022-08-21T02:46:02;98397.00;;;17.82;61.34
49611;BME280;35515;48.766;9.176;2022-08-21T02:48:32;98397.00;;;17.82;61.35
49611;BME280;35515;48.766;9.176;2022-08-21T02:51:03;98403.94;;;17.89;61.08
49611;BME280;35515;48.766;9.176;2022-08-21T02:53:31;98402.84;;;17.68;62.01
49611;BME280;35515;48.766;9.176;2022-08-21T02:55:59;98394.28;;;17.60;62.54
49611;BME280;35515;48.766;9.176;2022-08-21T02:58:29;98406.31;;;17.81;61.69
49611;BME280;35515;48.766;9.176;2022-08-21T03:00:56;98409.56;;;17.55;62.50
49611;BME280;35515;48.766;9.176;2022-08-21T03:03:24;98414.53;;;17.59;62.42
49611;BME280;35515;48.766;9.176;2022-08-21T03:05:53;98405.22;;;17.60;62.24
49611;BME280;35515;48.766;9.176;2022-08-21T03:08:21;98407.91;;;17.54;62.53
49611;BME280;35515;48.766;9.176;2022-08-21T03:10:50;98401.13;;;17.40;63.06
49611;BME280;35515;48.766;9.176;2022-08-21T03:13:18;98408.22;;;17.58;62.44
49611;BME280;35515;48.766;9.176;2022-08-21T03:15:45;98407.59;;;17.73;61.97
49611;BME280;35515;48.766;9.176;2022-08-21T03:18:12;98402.22;;;17.61;62.42
49611;BME280;35515;48.766;9.176;2022-08-21T03:20:41;98395.19;;;17.48;62.60
49611;BME280;35515;48.766;9.176;2022-08-21T03:23:09;98400.41;;;17.50;62.84
49611;BME280;35515;48.766;9.176;2022-08-21T03:25:37;98401.41;;;17.61;62.53
49611;BME280;35515;48.766;9.176;2022-08-21T03:28:07;98403.38;;;17.65;62.25
49611;BME280;35515;48.766;9.176;2022-08-21T03:30:35;98406.38;;;17.64;62.35
49611;BME280;35515;48.766;9.176;2022-08-21T03:33:02;98402.78;;;17.41;62.82
49611;BME280;35515;48.766;9.176;2022-08-21T03:35:29;98407.53;;;17.68;61.95
49611;BME280;35515;48.766;9.176;2022-08-21T03:37:56;98405.84;;;17.67;62.10
49611;BME280;35515;48.766;9.176;2022-08-21T03:40:24;98411.16;;;17.51;62.49
49611;BME280;35515;48.766;9.176;2022-08-21T03:42:51;98412.41;;;17.44;62.37
49611;BME280;35515;48.766;9.176;2022-08-21T03:45:18;98413.63;;;17.75;61.48
49611;BME280;35515;48.766;9.176;2022-08-21T03:47:53;98409.22;;;17.52;62.09
49611;BME280;35515;48.766;9.176;2022-08-21T03:50:21;98412.06;;;17.40;62.54
49611;BME280;35515;48.766;9.176;2022-08-21T03:52:48;98419.38;;;17.51;62.34
49611;BME280;35515;48.766;9.176;2022-08-21T03:55:15;98416.38;;;17.36;62.64
49611;BME280;35515;48.766;9.176;2022-08-21T03:57:43;98420.50;;;17.55;61.76
49611;BME280;35515;48.766;9.176;2022-08-21T04:00:11;98418.66;;;17.61;61.24
49611;BME280;35515;48.766;9.176;2022-08-21T04:02:38;98418.25;;;17.52;61.55
49611;BME280;35515;48.766;9.176;2022-08-21T04:05:06;98421.50;;;17.49;61.97
49611;BME280;35515;48.766;9.176;2022-08-21T04:07:33;98424.06;;;17.56;61.43
49611;BME280;35515;48.766;9.176;2022-08-21T04:09:59;98417.19;;;17.53;61.58
49611;BME280;35515;48.766;9.176;2022-08-21T04:12:26;98425.31;;;17.48;61.75
49611;BME280;35515;48.766;9.176;2022-08-21T04:14:54;98426.53;;;17.35;62.29
49611;BME280;35515;48.766;9.176;2022-08-21T04:17:20;98424.88;;;17.34;61.94
49611;BME280;35515;48.766;9.176;2022-08-21T04:19:47;98424.69;;;17.24;62.55
49611;BME280;35515;48.766;9.176;2022-08-21T04:22:15;98432.97;;;17.46;61.67
49611;BME280;35515;48.766;9.176;2022-08-21T04:24:42;98426.19;;;17.32;62.09
49611;BME280;35515;48.766;9.176;2022-08-21T04:27:08;98435.13;;;17.44;61.76
49611;BME280;35515;48.766;9.176;2022-08-21T04:29:35;98438.22;;;17.31;62.27
49611;BME280;35515;48.766;9.176;2022-08-21T04:32:03;98442.28;;;17.45;61.50
49611;BME280;35515;48.766;9.176;2022-08-21T04:34:29;98437.50;;;17.18;62.74
49611;BME280;35515;48.766;9.176;2022-08-21T04:36:56;98447.50;;;17.30;61.73
49611;BME280;35515;48.766;9.176;2022-08-21T04:39:22;98444.28;;;17.33;61.96
49611;BME280;35515;48.766;9.176;2022-08-21T04:41:49;98451.41;;;17.34;62.05
49611;BME280;35515;48.766;9.176;2022-08-21T04:44:15;98453.66;;;17.37;61.95
49611;BME280;35515;48.766;9.176;2022-08-21T04:46:43;98452.16;;;17.46;61.65
49611;BME280;35515;48.766;9.176;2022-08-21T04:49:10;98450.59;;;17.16;62.44
49611;BME280;35515;48.766;9.176;2022-08-21T04:51:38;98458.53;;;17.18;62.76
49611;BME280;35515;48.766;9.176;2022-08-21T04:54:09;98453.41;;;17.04;63.14
49611;BME280;35515;48.766;9.176;2022-08-21T04:56:40;98455.16;;;17.11;63.19
49611;BME280;35515;48.766;9.176;2022-08-21T04:59:10;98460.03;;;17.26;62.59
49611;BME280;35515;48.766;9.176;2022-08-21T05:01:39;98459.88;;;17.32;61.72
49611;BME280;35515;48.766;9.176;2022-08-21T05:04:10;98461.63;;;17.21;62.29
49611;BME280;35515;48.766;9.176;2022-08-21T05:06:40;98463.53;;;17.21;62.36
49611;BME280;35515;48.766;9.176;2022-08-21T05:09:08;98455.06;;;17.23;62.45
49611;BME280;35515;48.766;9.176;2022-08-21T05:11:36;98454.56;;;17.26;62.17
49611;BME280;35515;48.766;9.176;2022-08-21T05:14:03;98461.63;;;17.21;62.72
49611;BME280;35515;48.766;9.176;2022-08-21T05:16:30;98459.56;;;17.29;62.43
49611;BME280;35515;48.766;9.176;2022-08-21T05:18:56;98467.09;;;17.21;62.96
49611;BME280;35515;48.766;9.176;2022-08-21T05:21:25;98463.28;;;17.23;62.71
49611;BME280;35515;48.766;9.176;2022-08-21T05:23:51;98471.16;;;17.36;62.22
49611;BME280;35515;48.766;9.176;2022-08-21T05:26:18;98468.50;;;17.41;61.99
49611;BME280;35515;48.766;9.176;2022-08-21T05:28:44;98474.50;;;17.38;62.30
49611;BME280;35515;48.766;9.176;2022-08-21T05:31:11;98478.78;;;17.34;62.08
49611;BME280;35515;48.766;9.176;2022-08-21T05:33:38;98472.31;;;17.40;61.97
49611;BME280;35515;48.766;9.176;2022-08-21T05:36:04;98476.47;;;17.43;61.93
49611;BME280;35515;48.766;9.176;2022-08-21T05:38:32;98479.63;;;17.34;62.58
49611;BME280;35515;48.766;9.176;2022-08-21T05:40:59;98475.47;;;17.32;62.37
49611;BME280;35515;48.766;9.176;2022-08-21T05:43:26;98475.13;;;17.28;62.81
49611;BME280;35515;48.766;9.176;2022-08-21T05:45:52;98483.59;;;17.27;63.21
49611;BME280;35515;48.766;9.176;2022-08-21T05:48:21;98478.59;;;17.41;62.59
49611;BME280;35515;48.766;9.176;2022-08-21T05:50:49;98479.28;;;17.31;62.92
49611;BME280;35515;48.766;9.176;2022-08-21T05:53:18;98484.84;;;17.36;62.95
49611;BME280;35515;48.766;9.176;2022-08-21T05:55:47;98482.28;;;17.46;62.68
49611;BME280;35515;48.766;9.176;2022-08-21T05:58:16;98484.59;;;17.54;62.27
49611;BME280;35515;48.766;9.176;2022-08-21T06:00:43;98485.28;;;17.45;62.84
49611;BME280;35515;48.766;9.176;2022-08-21T06:03:12;98478.94;;;17.44;62.94
49611;BME280;35515;48.766;9.176;2022-08-21T06:05:39;98479.91;;;17.55;62.78
49611;BME280;35515;48.766;9.176;2022-08-21T06:08:06;98484.75;;;17.65;62.48
49611;BME280;35515;48.766;9.176;2022-08-21T06:10:33;98482.84;;;17.48;63.10
49611;BME280;35515;48.766;9.176;2022-08-21T06:13:01;98487.50;;;17.48;63.33
49611;BME280;35515;48.766;9.176;2022-08-21T06:15:28;98481.25;;;17.52;63.13
49611;BME280;35515;48.766;9.176;2022-08-21T06:17:54;98481.34;;;17.58;62.90
49611;BME280;35515;48.766;9.176;2022-08-21T06:20:21;98481.22;;;17.69;62.63
49611;BME280;35515;48.766;9.176;2022-08-21T06:22:48;98483.22;;;17.74;62.58
49611;BME280;35515;48.766;9.176;2022-08-21T06:25:15;98478.56;;;17.75;62.67
49611;BME280;35515;48.766;9.176;2022-08-21T06:27:42;98482.72;;;17.77;62.74
49611;BME280;35515;48.766;9.176;2022-08-21T06:30:11;98485.72;;;17.76;63.27
49611;BME280;35515;48.766;9.176;2022-08-21T06:32:38;98481.91;;;17.77;63.30
49611;BME280;35515;48.766;9.176;2022-08-21T06:35:05;98471.75;;;17.77;63.38
49611;BME280;35515;48.766;9.176;2022-08-21T06:37:33;98480.53;;;17.79;63.10
49611;BME280;35515;48.766;9.176;2022-08-21T06:39:59;98484.50;;;17.88;62.79
49611;BME280;35515;48.766;9.176;2022-08-21T06:42:26;98476.38;;;17.94;62.74
49611;BME280;35515;48.766;9.176;2022-08-21T06:44:53;98477.53;;;17.98;62.60
49611;BME280;35515;48.766;9.176;2022-08-21T06:47:21;98474.78;;;17.98;62.96
49611;BME280;35515;48.766;9.176;2022-08-21T06:49:47;98473.19;;;18.02;62.96
49611;BME280;35515;48.766;9.176;2022-08-21T06:52:14;98472.19;;;18.08;62.76
49611;BME280;35515;48.766;9.176;2022-08-21T06:54:41;98472.00;;;18.15;62.53
49611;BME280;35515;48.766;9.176;2022-08-21T06:57:07;98474.81;;;18.20;62.46
49611;BME280;35515;48.766;9.176;2022-08-21T06:59:34;98467.97;;;18.23;62.15
49611;BME280;35515;48.766;9.176;2022-08-21T07:02:01;98475.13;;;18.24;62.51
49611;BME280;35515;48.766;9.176;2022-08-21T07:04:28;98467.78;;;18.29;61.96
49611;BME280;35515;48.766;9.176;2022-08-21T07:06:55;98471.88;;;18.27;62.46
49611;BME280;35515;48.766;9.176;2022-08-21T07:09:22;98463.19;;;18.35;61.34
49611;BME280;35515;48.766;9.176;2022-08-21T07:11:52;98465.47;;;18.43;60.89
49611;BME280;35515;48.766;9.176;2022-08-21T07:14:20;98460.16;;;18.59;59.45
49611;BME280;35515;48.766;9.176;2022-08-21T07:16:46;98461.59;;;18.66;59.12
49611;BME280;35515;48.766;9.176;2022-08-21T07:19:13;98458.13;;;18.76;59.46
49611;BME280;35515;48.766;9.176;2022-08-21T07:21:41;98461.31;;;18.90;58.29
49611;BME280;35515;48.766;9.176;2022-08-21T07:24:08;98468.72;;;18.90;58.52
49611;BME280;35515;48.766;9.176;2022-08-21T07:26:35;98457.09;;;18.82;59.16
49611;BME280;35515;48.766;9.176;2022-08-21T07:29:02;98452.94;;;18.80;58.59
49611;BME280;35515;48.766;9.176;2022-08-21T07:31:30;98456.25;;;18.82;58.62
49611;BME280;35515;48.766;9.176;2022-08-21T07:33:56;98450.53;;;18.83;58.93
49611;BME280;35515;48.766;9.176;2022-08-21T07:36:23;98460.47;;;18.90;58.00
49611;BME280;35515;48.766;9.176;2022-08-21T07:38:51;98450.13;;;18.97;58.54
49611;BME280;35515;48.766;9.176;2022-08-21T07:41:19;98455.41;;;19.03;57.66
49611;BME280;35515;48.766;9.176;2022-08-21T07:43:46;98451.59;;;19.10;57.78
49611;BME280;35515;48.766;9.176;2022-08-21T07:46:14;98456.81;;;19.11;57.31
49611;BME280;35515;48.766;9.176;2022-08-21T07:48:41;98447.22;;;19.14;57.21
49611;BME280;35515;48.766;9.176;2022-08-21T07:51:15;98455.78;;;19.17;56.65
49611;BME280;35515;48.766;9.176;2022-08-21T07:53:47;98452.25;;;19.27;56.40
49611;BME280;35515;48.766;9.176;2022-08-21T07:56:16;98444.28;;;19.26;57.22
49611;BME280;35515;48.766;9.176;2022-08-21T07:58:44;98439.94;;;19.30;56.74
49611;BME280;35515;48.766;9.176;2022-08-21T08:01:11;98453.69;;;19.35;57.03
49611;BME280;35515;48.766;9.176;2022-08-21T08:03:37;98442.75;;;19.40;56.66
49611;BME280;35515;48.766;9.176;2022-08-21T08:06:05;98439.78;;;19.47;55.94
49611;BME280;35515;48.766;9.176;2022-08-21T08:08:33;98441.75;;;19.57;55.64
49611;BME280;35515;48.766;9.176;2022-08-21T08:11:00;98429.41;;;19.59;56.03
49611;BME280;35515;48.766;9.176;2022-08-21T08:13:28;98430.00;;;19.66;55.49
49611;BME280;35515;48.766;9.176;2022-08-21T08:15:55;98434.72;;;19.76;55.32
49611;BME280;35515;48.766;9.176;2022-08-21T08:18:22;98429.78;;;19.73;55.13
49611;BME280;35515;48.766;9.176;2022-08-21T08:20:48;98427.31;;;19.77;54.73
49611;BME280;35515;48.766;9.176;2022-08-21T08:23:15;98433.69;;;19.82;54.42
49611;BME280;35515;48.766;9.176;2022-08-21T08:25:42;98419.97;;;19.87;54.56
49611;BME280;35515;48.766;9.176;2022-08-21T08:28:08;98423.88;;;19.97;54.09
49611;BME280;35515;48.766;9.176;2022-08-21T08:30:36;98420.03;;;20.03;53.55
49611;BME280;35515;48.766;9.176;2022-08-21T08:33:03;98417.84;;;20.05;53.97
49611;BME280;35515;48.766;9.176;2022-08-21T08:35:29;98413.44;;;20.04;53.21
49611;BME280;35515;48.766;9.176;2022-08-21T08:37:56;98409.03;;;20.08;52.78
49611;BME280;35515;48.766;9.176;2022-08-21T08:40:28;98407.13;;;20.14;52.63
49611;BME280;35515;48.766;9.176;2022-08-21T08:42:58;98405.50;;;20.23;51.89
49611;BME280;35515;48.766;9.176;2022-08-21T08:45:25;98398.16;;;20.54;51.36
49611;BME280;35515;48.766;9.176;2022-08-21T08:47:56;98403.13;;;20.47;51.10
49611;BME280;35515;48.766;9.176;2022-08-21T08:50:28;98396.50;;;20.48;50.12
49611;BME280;35515;48.766;9.176;2022-08-21T08:53:02;98402.56;;;20.55;50.50
49611;BME280;35515;48.766;9.176;2022-08-21T08:55:33;98397.06;;;20.55;50.62
49611;BME280;35515;48.766;9.176;2022-08-21T08:58:01;98388.25;;;20.64;50.60
49611;BME280;35515;48.766;9.176;2022-08-21T09:00:29;98393.53;;;20.70;50.71
49611;BME280;35515;48.766;9.176;2022-08-21T09:03:01;98385.53;;;20.90;49.25
49611;BME280;35515;48.766;9.176;2022-08-21T09:05:30;98392.16;;;20.88;49.69
49611;BME280;35515;48.766;9.176;2022-08-21T09:08:15;98385.56;;;21.10;48.33
49611;BME280;35515;48.766;9.176;2022-08-21T09:10:55;98389.97;;;20.96;48.39
49611;BME280;35515;48.766;9.176;2022-08-21T09:13:32;98391.34;;;20.93;48.69
49611;BME280;35515;48.766;9.176;2022-08-21T09:16:05;98385.25;;;21.12;47.84
49611;BME280;35515;48.766;9.176;2022-08-21T09:18:44;98387.75;;;21.08;47.85
49611;BME280;35515;48.766;9.176;2022-08-21T09:21:18;98375.63;;;21.09;47.84
49611;BME280;35515;48.766;9.176;2022-08-21T09:23:52;98378.94;;;21.06;48.48
49611;BME280;35515;48.766;9.176;2022-08-21T09:26:23;98383.59;;;21.05;48.53
49611;BME280;35515;48.766;9.176;2022-08-21T09:28:53;98371.78;;;21.05;48.76
49611;BME280;35515;48.766;9.176;2022-08-21T09:31:25;98377.28;;;21.10;48.69
49611;BME280;35515;48.766;9.176;2022-08-21T09:33:59;98367.31;;;21.30;48.21
49611;BME280;35515;48.766;9.176;2022-08-21T09:36:35;98369.25;;;21.29;48.17
49611;BME280;35515;48.766;9.176;2022-08-21T09:39:02;98370.91;;;21.30;48.06
49611;BME280;35515;48.766;9.176;2022-08-21T09:41:31;98372.81;;;21.40;48.11
49611;BME280;35515;48.766;9.176;2022-08-21T09:43:59;98368.94;;;21.46;47.89
49611;BME280;35515;48.766;9.176;2022-08-21T09:46:26;98365.06;;;21.63;47.71
49611;BME280;35515;48.766;9.176;2022-08-21T09:48:55;98364.25;;;21.62;47.82
49611;BME280;35515;48.766;9.176;2022-08-21T09:51:26;98365.56;;;21.75;47.46
49611;BME280;35515;48.766;9.176;2022-08-21T09:53:55;98368.88;;;21.72;46.60
49611;BME280;35515;48.766;9.176;2022-08-21T09:56:28;98359.53;;;21.63;47.21
49611;BME280;35515;48.766;9.176;2022-08-21T09:59:17;98367.22;;;21.71;46.71
49611;BME280;35515;48.766;9.176;2022-08-21T10:01:45;98363.34;;;21.82;46.18
49611;BME280;35515;48.766;9.176;2022-08-21T10:04:11;98361.97;;;21.75;46.24
49611;BME280;35515;48.766;9.176;2022-08-21T10:06:40;98358.94;;;21.76;46.35
49611;BME280;35515;48.766;9.176;2022-08-21T10:09:08;98355.03;;;21.87;45.88
49611;BME280;35515;48.766;9.176;2022-08-21T10:11:35;98349.56;;;21.77;46.04
49611;BME280;35515;48.766;9.176;2022-08-21T10:14:11;98356.19;;;21.71;46.57
49611;BME280;35515;48.766;9.176;2022-08-21T10:16:49;98351.78;;;21.75;46.37
49611;BME280;35515;48.766;9.176;2022-08-21T10:19:25;98347.38;;;21.79;46.41
49611;BME280;35515;48.766;9.176;2022-08-21T10:22:00;98347.84;;;21.97;45.91
49611;BME280;35515;48.766;9.176;2022-08-21T10:24:32;98339.00;;;21.95;45.45
49611;BME280;35515;48.766;9.176;2022-08-21T10:27:09;98343.44;;;21.91;46.55
49611;BME280;35515;48.766;9.176;2022-08-21T10:29:47;98340.41;;;21.92;46.09
49611;BME280;35515;48.766;9.176;2022-08-21T10:32:29;98336.53;;;21.93;46.02
49611;BME280;35515;48.766;9.176;2022-08-21T10:35:04;98332.84;;;22.13;45.33
49611;BME280;35515;48.766;9.176;2022-08-21T10:37:42;98331.72;;;22.14;45.13
49611;BME280;35515;48.766;9.176;2022-08-21T10:40:19;98331.22;;;22.52;44.06
49611;BME280;35515;48.766;9.176;2022-08-21T10:42:55;98325.31;;;22.24;44.92
49611;BME280;35515;48.766;9.176;2022-08-21T10:45:32;98321.19;;;22.21;44.81
49611;BME280;35515;48.766;9.176;2022-08-21T10:48:05;98324.03;;;22.11;44.66
49611;BME280;35515;48.766;9.176;2022-08-21T10:50:38;98319.03;;;22.13;44.49
49611;BME280;35515;48.766;9.176;2022-08-21T10:53:28;98321.00;;;22.08;44.81
49611;BME280;35515;48.766;9.176;2022-08-21T10:56:02;98312.84;;;22.32;44.40
49611;BME280;35515;48.766;9.176;2022-08-21T10:58:37;98310.41;;;22.25;44.56
49611;BME280;35515;48.766;9.176;2022-08-21T11:01:12;98312.47;;;22.04;45.37
49611;BME280;35515;48.766;9.176;2022-08-21T11:03:44;98315.53;;;22.02;45.07
49611;BME280;35515;48.766;9.176;2022-08-21T11:06:13;98309.44;;;22.05;45.02
49611;BME280;35515;48.766;9.176;2022-08-21T11:08:44;98308.81;;;22.14;44.40
49611;BME280;35515;48.766;9.176;2022-08-21T11:11:18;98308.50;;;22.20;44.63
49611;BME280;35515;48.766;9.176;2022-08-21T11:13:49;98307.38;;;22.27;44.38
49611;BME280;35515;48.766;9.176;2022-08-21T11:16:23;98298.50;;;22.35;44.40
49611;BME280;35515;48.766;9.176;2022-08-21T11:18:56;98305.34;;;22.43;44.39
49611;BME280;35515;48.766;9.176;2022-08-21T11:21:32;98300.00;;;22.57;44.15
49611;BME280;35515;48.766;9.176;2022-08-21T11:24:14;98292.53;;;22.57;44.38
49611;BME280;35515;48.766;9.176;2022-08-21T11:26:46;98292.63;;;22.47;44.35
49611;BME280;35515;48.766;9.176;2022-08-21T11:29:18;98284.47;;;22.66;43.49
49611;BME280;35515;48.766;9.176;2022-08-21T11:31:56;98298.28;;;22.66;43.37
49611;BME280;35515;48.766;9.176;2022-08-21T11:34:39;98295.03;;;22.53;43.82
49611;BME280;35515;48.766;9.176;2022-08-21T11:37:17;98291.13;;;22.60;43.50
49611;BME280;35515;48.766;9.176;2022-08-21T11:39:55;98293.69;;;22.51;43.98
49611;BME280;35515;48.766;9.176;2022-08-21T11:42:30;98290.59;;;22.58;43.82
49611;BME280;35515;48.766;9.176;2022-08-21T11:45:08;98287.84;;;22.58;43.47
49611;BME280;35515;48.766;9.176;2022-08-21T11:47:49;98281.78;;;22.56;43.97
49611;BME280;35515;48.766;9.176;2022-08-21T11:50:20;98279.03;;;22.56;44.11
49611;BME280;35515;48.766;9.176;2022-08-21T11:52:51;98276.59;;;22.49;44.41
49611;BME280;35515;48.766;9.176;2022-08-21T11:55:25;98274.88;;;22.58;43.49
49611;BME280;35515;48.766;9.176;2022-08-21T11:57:57;98264.00;;;22.67;43.36
49611;BME280;35515;48.766;9.176;2022-08-21T12:00:29;98270.81;;;23.04;42.22
49611;BME280;35515;48.766;9.176;2022-08-21T12:02:59;98270.41;;;22.92;42.42
49611;BME280;35515;48.766;9.176;2022-08-21T12:05:35;98268.75;;;22.91;42.38
49611;BME280;35515;48.766;9.176;2022-08-21T12:08:06;98274.81;;;22.93;42.24
49611;BME280;35515;48.766;9.176;2022-08-21T12:10:41;98268.25;;;22.88;42.45
49611;BME280;35515;48.766;9.176;2022-08-21T12:13:11;98273.69;;;22.94;42.17
49611;BME280;35515;48.766;9.176;2022-08-21T12:15:47;98268.25;;;22.88;41.85
49611;BME280;35515;48.766;9.176;2022-08-21T12:18:23;98272.09;;;22.87;44.47
49611;BME280;35515;48.766;9.176;2022-08-21T12:21:07;98262.13;;;22.92;42.25
49611;BME280;35515;48.766;9.176;2022-08-21T12:23:46;98256.50;;;23.02;41.80
49611;BME280;35515;48.766;9.176;2022-08-21T12:26:28;98257.56;;;23.06;41.40
49611;BME280;35515;48.766;9.176;2022-08-21T12:29:11;98256.34;;;23.12;41.73
49611;BME280;35515;48.766;9.176;2022-08-21T12:31:49;98251.28;;;23.25;41.20
49611;BME280;35515;48.766;9.176;2022-08-21T12:34:17;98247.28;;;23.36;40.54
49611;BME280;35515;48.766;9.176;2022-08-21T12:36:49;98250.03;;;23.36;40.38
49611;BME280;35515;48.766;9.176;2022-08-21T12:39:24;98242.00;;;23.59;39.61
49611;BME280;35515;48.766;9.176;2022-08-21T12:41:56;98231.91;;;23.49;39.99
49611;BME280;35515;48.766;9.176;2022-08-21T12:44:38;98237.44;;;23.49;39.92
49611;BME280;35515;48.766;9.176;2022-08-21T12:47:14;98230.56;;;23.46;40.06
49611;BME280;35515;48.766;9.176;2022-08-21T12:49:50;98235.06;;;23.42;40.00
49611;BME280;35515;48.766;9.176;2022-08-21T12:52:21;98228.97;;;23.40;39.72
49611;BME280;35515;48.766;9.176;2022-08-21T12:54:48;98237.88;;;23.37;40.32
49611;BME280;35515;48.766;9.176;2022-08-21T12:57:21;98232.84;;;23.39;39.97
49611;BME280;35515;48.766;9.176;2022-08-21T12:59:56;98242.75;;;23.45;39.74
49611;BME280;35515;48.766;9.176;2022-08-21T13:02:26;98235.81;;;23.67;38.68
49611;BME280;35515;48.766;9.176;2022-08-21T13:04:55;98229.97;;;23.49;39.34
49611;BME280;35515;48.766;9.176;2022-08-21T13:07:27;98236.75;;;23.38;39.52
49611;BME280;35515;48.766;9.176;2022-08-21T13:10:01;98231.66;;;23.26;39.95
49611;BME280;35515;48.766;9.176;2022-08-21T13:12:32;98223.00;;;23.33;40.19